sensor_id;sensor_type;location;lat;lon;timestamp;P1;durP1;ratioP1;P2;durP2;ratioP2
15716;SDS011;7960;50.908;4.204;2023-02-21T00:00:38;29.83;;;17.33;;
15716;SDS011;7960;50.908;4.204;2023-02-21T00:03:22;31.57;;;17.33;;
15716;SDS011;7960;50.908;4.204;2023-02-21T00:06:06;28.03;;;17.00;;
15716;SDS011;7960;50.908;4.204;2023-02-21T00:08:52;31.57;;;17.17;;
15716;SDS011;7960;50.908;4.204;2023-02-21T00:11:39;27.27;;;15.40;;
15716;SDS011;7960;50.908;4.204;2023-02-21T00:14:24;26.63;;;15.97;;
15716;SDS011;7960;50.908;4.204;2023-02-21T00:17:09;29.53;;;16.73;;
15716;SDS011;7960;50.908;4.204;2023-02-21T00:19:53;28.47;;;15.93;;
15716;SDS011;7960;50.908;4.204;2023-02-21T00:22:37;31.60;;;17.33;;
15716;SDS011;7960;50.908;4.204;2023-02-21T00:25:23;28.70;;;16.10;;
15716;SDS011;7960;50.908;4.204;2023-02-21T00:28:07;33.73;;;16.73;;
15716;SDS011;7960;50.908;4.204;2023-02-21T00:30:51;27.20;;;16.23;;
15716;SDS011;7960;50.908;4.204;2023-02-21T00:33:35;31.97;;;16.53;;
15716;SDS011;7960;50.908;4.204;2023-02-21T00:36:20;29.83;;;16.50;;
15716;SDS011;7960;50.908;4.204;2023-02-21T00:39:04;31.07;;;16.40;;
15716;SDS011;7960;50.908;4.204;2023-02-21T00:41:50;31.93;;;16.83;;
15716;SDS011;7960;50.908;4.204;2023-02-21T00:44:34;32.23;;;16.27;;
15716;SDS011;7960;50.908;4.204;2023-02-21T00:47:18;31.27;;;15.27;;
15716;SDS011;7960;50.908;4.204;2023-02-21T00:50:02;28.07;;;14.90;;
15716;SDS011;7960;50.908;4.204;2023-02-21T00:52:47;34.37;;;16.90;;
15716;SDS011;7960;50.908;4.204;2023-02-21T00:55:31;40.97;;;17.20;;
15716;SDS011;7960;50.908;4.204;2023-02-21T00:58:16;44.53;;;15.73;;
15716;SDS011;7960;50.908;4.204;2023-02-21T01:01:03;65.83;;;17.23;;
15716;SDS011;7960;50.908;4.204;2023-02-21T01:03:48;34.00;;;14.93;;
15716;SDS011;7960;50.908;4.204;2023-02-21T01:06:32;37.63;;;14.70;;
15716;SDS011;7960;50.908;4.204;2023-02-21T01:09:16;40.37;;;15.87;;
15716;SDS011;7960;50.908;4.204;2023-02-21T01:12:00;34.77;;;15.33;;
15716;SDS011;7960;50.908;4.204;2023-02-21T01:14:46;31.23;;;15.23;;
15716;SDS011;7960;50.908;4.204;2023-02-21T01:17:30;28.27;;;14.90;;
15716;SDS011;7960;50.908;4.204;2023-02-21T01:20:15;38.27;;;15.10;;
15716;SDS011;7960;50.908;4.204;2023-02-21T01:22:59;31.20;;;15.67;;
15716;SDS011;7960;50.908;4.204;2023-02-21T01:25:43;42.37;;;14.87;;
15716;SDS011;7960;50.908;4.204;2023-02-21T01:28:27;40.30;;;15.53;;
15716;SDS011;7960;50.908;4.204;2023-02-21T01:31:17;49.83;;;16.30;;
15716;SDS011;7960;50.908;4.204;2023-02-21T01:34:01;61.53;;;17.43;;
15716;SDS011;7960;50.908;4.204;2023-02-21T01:36:45;50.70;;;15.30;;
15716;SDS011;7960;50.908;4.204;2023-02-21T01:39:30;54.73;;;15.50;;
15716;SDS011;7960;50.908;4.204;2023-02-21T01:42:14;62.97;;;14.50;;
15716;SDS011;7960;50.908;4.204;2023-02-21T01:48:31;70.90;;;18.20;;
15716;SDS011;7960;50.908;4.204;2023-02-21T01:51:17;66.03;;;15.47;;
15716;SDS011;7960;50.908;4.204;2023-02-21T01:54:04;53.63;;;14.73;;
15716;SDS011;7960;50.908;4.204;2023-02-21T01:56:50;75.73;;;17.00;;
15716;SDS011;7960;50.908;4.204;2023-02-21T01:59:36;54.63;;;15.40;;
15716;SDS011;7960;50.908;4.204;2023-02-21T02:02:23;32.70;;;15.10;;
15716;SDS011;7960;50.908;4.204;2023-02-21T02:05:13;44.83;;;15.43;;
15716;SDS011;7960;50.908;4.204;2023-02-21T02:07:58;36.63;;;14.97;;
15716;SDS011;7960;50.908;4.204;2023-02-21T02:10:42;39.27;;;14.03;;
15716;SDS011;7960;50.908;4.204;2023-02-21T02:13:31;52.57;;;15.87;;
15716;SDS011;7960;50.908;4.204;2023-02-21T02:16:10;31.33;;;15.23;;
15716;SDS011;7960;50.908;4.204;2023-02-21T02:18:53;38.70;;;15.60;;
15716;SDS011;7960;50.908;4.204;2023-02-21T02:21:56;35.00;;;14.33;;
15716;SDS011;7960;50.908;4.204;2023-02-21T02:24:57;46.23;;;15.57;;
15716;SDS011;7960;50.908;4.204;2023-02-21T02:36:48;29.90;;;14.20;;
15716;SDS011;7960;50.908;4.204;2023-02-21T02:39:20;30.37;;;13.87;;
15716;SDS011;7960;50.908;4.204;2023-02-21T02:41:52;40.47;;;14.13;;
15716;SDS011;7960;50.908;4.204;2023-02-21T02:44:28;36.90;;;14.27;;
15716;SDS011;7960;50.908;4.204;2023-02-21T02:47:01;40.10;;;15.60;;
15716;SDS011;7960;50.908;4.204;2023-02-21T02:49:33;55.73;;;14.47;;
15716;SDS011;7960;50.908;4.204;2023-02-21T02:52:05;27.63;;;14.03;;
15716;SDS011;7960;50.908;4.204;2023-02-21T02:54:33;33.47;;;14.77;;
15716;SDS011;7960;50.908;4.204;2023-02-21T02:57:01;32.97;;;13.87;;
15716;SDS011;7960;50.908;4.204;2023-02-21T02:59:35;27.03;;;13.77;;
15716;SDS011;7960;50.908;4.204;2023-02-21T03:02:11;24.33;;;13.43;;
15716;SDS011;7960;50.908;4.204;2023-02-21T03:04:58;30.07;;;14.10;;
15716;SDS011;7960;50.908;4.204;2023-02-21T03:07:58;28.67;;;13.70;;
15716;SDS011;7960;50.908;4.204;2023-02-21T03:10:34;38.10;;;13.67;;
15716;SDS011;7960;50.908;4.204;2023-02-21T03:13:11;39.83;;;13.03;;
15716;SDS011;7960;50.908;4.204;2023-02-21T03:15:44;27.03;;;13.50;;
15716;SDS011;7960;50.908;4.204;2023-02-21T03:18:16;32.33;;;12.83;;
15716;SDS011;7960;50.908;4.204;2023-02-21T03:20:50;27.20;;;12.70;;
15716;SDS011;7960;50.908;4.204;2023-02-21T03:23:21;27.90;;;12.73;;
15716;SDS011;7960;50.908;4.204;2023-02-21T03:25:52;35.60;;;13.73;;
15716;SDS011;7960;50.908;4.204;2023-02-21T03:28:22;25.73;;;12.60;;
15716;SDS011;7960;50.908;4.204;2023-02-21T03:30:51;47.37;;;14.30;;
15716;SDS011;7960;50.908;4.204;2023-02-21T03:33:19;42.57;;;14.03;;
15716;SDS011;7960;50.908;4.204;2023-02-21T03:35:46;23.57;;;12.67;;
15716;SDS011;7960;50.908;4.204;2023-02-21T03:38:12;34.20;;;13.80;;
15716;SDS011;7960;50.908;4.204;2023-02-21T03:40:41;28.90;;;13.03;;
15716;SDS011;7960;50.908;4.204;2023-02-21T03:43:09;29.83;;;12.77;;
15716;SDS011;7960;50.908;4.204;2023-02-21T03:45:36;53.87;;;15.60;;
15716;SDS011;7960;50.908;4.204;2023-02-21T03:48:03;48.77;;;13.67;;
15716;SDS011;7960;50.908;4.204;2023-02-21T03:50:30;44.33;;;13.60;;
15716;SDS011;7960;50.908;4.204;2023-02-21T03:52:57;46.17;;;14.83;;
15716;SDS011;7960;50.908;4.204;2023-02-21T03:55:25;57.07;;;13.13;;
15716;SDS011;7960;50.908;4.204;2023-02-21T03:57:53;58.83;;;13.97;;
15716;SDS011;7960;50.908;4.204;2023-02-21T04:00:20;48.63;;;13.67;;
15716;SDS011;7960;50.908;4.204;2023-02-21T04:02:47;40.77;;;12.70;;
15716;SDS011;7960;50.908;4.204;2023-02-21T04:05:14;47.40;;;14.33;;
15716;SDS011;7960;50.908;4.204;2023-02-21T04:07:40;46.50;;;14.30;;
15716;SDS011;7960;50.908;4.204;2023-02-21T04:10:08;43.67;;;13.37;;
15716;SDS011;7960;50.908;4.204;2023-02-21T04:12:34;83.27;;;14.10;;
15716;SDS011;7960;50.908;4.204;2023-02-21T04:15:03;29.30;;;13.27;;
15716;SDS011;7960;50.908;4.204;2023-02-21T04:17:31;100.83;;;15.40;;
15716;SDS011;7960;50.908;4.204;2023-02-21T04:19:58;36.80;;;13.33;;
15716;SDS011;7960;50.908;4.204;2023-02-21T04:22:26;50.20;;;13.77;;
15716;SDS011;7960;50.908;4.204;2023-02-21T04:24:53;91.20;;;14.73;;
15716;SDS011;7960;50.908;4.204;2023-02-21T04:27:20;45.53;;;13.47;;
15716;SDS011;7960;50.908;4.204;2023-02-21T04:29:47;52.57;;;14.63;;
15716;SDS011;7960;50.908;4.204;2023-02-21T04:32:15;49.33;;;13.20;;
15716;SDS011;7960;50.908;4.204;2023-02-21T04:34:42;39.43;;;13.90;;
15716;SDS011;7960;50.908;4.204;2023-02-21T04:37:09;63.27;;;13.90;;
15716;SDS011;7960;50.908;4.204;2023-02-21T04:39:37;35.27;;;12.70;;
15716;SDS011;7960;50.908;4.204;2023-02-21T04:42:03;52.60;;;13.50;;
15716;SDS011;7960;50.908;4.204;2023-02-21T04:44:30;37.23;;;12.67;;
15716;SDS011;7960;50.908;4.204;2023-02-21T04:46:57;26.97;;;11.70;;
15716;SDS011;7960;50.908;4.204;2023-02-21T04:49:26;31.20;;;12.63;;
15716;SDS011;7960;50.908;4.204;2023-02-21T04:51:53;28.80;;;10.73;;
15716;SDS011;7960;50.908;4.204;2023-02-21T04:54:20;22.57;;;11.10;;
15716;SDS011;7960;50.908;4.204;2023-02-21T04:56:47;21.27;;;11.90;;
15716;SDS011;7960;50.908;4.204;2023-02-21T04:59:14;23.13;;;10.33;;
15716;SDS011;7960;50.908;4.204;2023-02-21T05:01:41;20.83;;;10.60;;
15716;SDS011;7960;50.908;4.204;2023-02-21T05:04:08;31.00;;;11.43;;
15716;SDS011;7960;50.908;4.204;2023-02-21T05:06:36;21.13;;;10.87;;
15716;SDS011;7960;50.908;4.204;2023-02-21T05:09:03;29.37;;;9.83;;
15716;SDS011;7960;50.908;4.204;2023-02-21T05:11:31;20.37;;;10.13;;
15716;SDS011;7960;50.908;4.204;2023-02-21T05:13:59;20.50;;;9.13;;
15716;SDS011;7960;50.908;4.204;2023-02-21T05:16:26;17.87;;;10.00;;
15716;SDS011;7960;50.908;4.204;2023-02-21T05:18:54;19.40;;;9.10;;
15716;SDS011;7960;50.908;4.204;2023-02-21T05:21:21;16.47;;;8.87;;
15716;SDS011;7960;50.908;4.204;2023-02-21T05:23:49;17.93;;;9.50;;
15716;SDS011;7960;50.908;4.204;2023-02-21T05:26:21;16.10;;;8.67;;
15716;SDS011;7960;50.908;4.204;2023-02-21T05:28:50;17.60;;;8.90;;
15716;SDS011;7960;50.908;4.204;2023-02-21T05:31:18;18.03;;;9.40;;
15716;SDS011;7960;50.908;4.204;2023-02-21T05:33:45;17.93;;;8.80;;
15716;SDS011;7960;50.908;4.204;2023-02-21T05:36:12;18.37;;;9.23;;
15716;SDS011;7960;50.908;4.204;2023-02-21T05:38:43;16.90;;;9.07;;
15716;SDS011;7960;50.908;4.204;2023-02-21T05:41:12;16.87;;;8.60;;
15716;SDS011;7960;50.908;4.204;2023-02-21T05:43:39;17.57;;;8.60;;
15716;SDS011;7960;50.908;4.204;2023-02-21T05:46:15;16.97;;;8.70;;
15716;SDS011;7960;50.908;4.204;2023-02-21T05:48:43;17.63;;;8.60;;
15716;SDS011;7960;50.908;4.204;2023-02-21T05:51:10;14.30;;;7.80;;
15716;SDS011;7960;50.908;4.204;2023-02-21T05:53:37;15.50;;;8.70;;
15716;SDS011;7960;50.908;4.204;2023-02-21T05:56:04;16.47;;;8.73;;
15716;SDS011;7960;50.908;4.204;2023-02-21T05:58:34;20.33;;;8.60;;
15716;SDS011;7960;50.908;4.204;2023-02-21T06:01:01;16.33;;;8.17;;
15716;SDS011;7960;50.908;4.204;2023-02-21T06:03:28;18.80;;;9.03;;
15716;SDS011;7960;50.908;4.204;2023-02-21T06:05:55;20.07;;;9.27;;
15716;SDS011;7960;50.908;4.204;2023-02-21T06:08:22;16.30;;;8.27;;
15716;SDS011;7960;50.908;4.204;2023-02-21T06:10:49;16.53;;;8.80;;
15716;SDS011;7960;50.908;4.204;2023-02-21T06:13:16;19.40;;;9.50;;
15716;SDS011;7960;50.908;4.204;2023-02-21T06:15:45;18.77;;;9.10;;
15716;SDS011;7960;50.908;4.204;2023-02-21T06:18:13;18.97;;;9.03;;
15716;SDS011;7960;50.908;4.204;2023-02-21T06:20:40;21.37;;;9.37;;
15716;SDS011;7960;50.908;4.204;2023-02-21T06:23:09;21.03;;;8.70;;
15716;SDS011;7960;50.908;4.204;2023-02-21T06:25:36;17.57;;;7.97;;
15716;SDS011;7960;50.908;4.204;2023-02-21T06:28:03;17.40;;;8.13;;
15716;SDS011;7960;50.908;4.204;2023-02-21T06:30:30;20.30;;;9.00;;
15716;SDS011;7960;50.908;4.204;2023-02-21T06:32:58;15.10;;;8.10;;
15716;SDS011;7960;50.908;4.204;2023-02-21T06:35:25;17.47;;;8.20;;
15716;SDS011;7960;50.908;4.204;2023-02-21T06:37:53;16.03;;;7.53;;
15716;SDS011;7960;50.908;4.204;2023-02-21T06:40:20;15.50;;;8.17;;
15716;SDS011;7960;50.908;4.204;2023-02-21T06:42:47;16.10;;;8.13;;
15716;SDS011;7960;50.908;4.204;2023-02-21T06:45:14;16.20;;;7.80;;
15716;SDS011;7960;50.908;4.204;2023-02-21T06:47:41;13.23;;;7.43;;
15716;SDS011;7960;50.908;4.204;2023-02-21T06:50:09;16.53;;;8.43;;
15716;SDS011;7960;50.908;4.204;2023-02-21T06:52:36;18.60;;;8.23;;
15716;SDS011;7960;50.908;4.204;2023-02-21T06:55:03;16.93;;;7.83;;
15716;SDS011;7960;50.908;4.204;2023-02-21T06:57:31;19.93;;;9.00;;
15716;SDS011;7960;50.908;4.204;2023-02-21T06:59:58;15.63;;;7.63;;
15716;SDS011;7960;50.908;4.204;2023-02-21T07:02:25;15.67;;;7.57;;
15716;SDS011;7960;50.908;4.204;2023-02-21T07:04:52;14.73;;;8.43;;
15716;SDS011;7960;50.908;4.204;2023-02-21T07:07:20;16.00;;;7.13;;
15716;SDS011;7960;50.908;4.204;2023-02-21T07:09:47;15.77;;;7.50;;
15716;SDS011;7960;50.908;4.204;2023-02-21T07:12:14;16.40;;;8.03;;
15716;SDS011;7960;50.908;4.204;2023-02-21T07:14:41;18.33;;;8.53;;
15716;SDS011;7960;50.908;4.204;2023-02-21T07:17:08;19.53;;;8.57;;
15716;SDS011;7960;50.908;4.204;2023-02-21T07:19:38;18.47;;;8.30;;
15716;SDS011;7960;50.908;4.204;2023-02-21T07:22:06;15.23;;;7.73;;
15716;SDS011;7960;50.908;4.204;2023-02-21T07:24:34;16.10;;;7.27;;
15716;SDS011;7960;50.908;4.204;2023-02-21T07:27:01;12.27;;;6.50;;
15716;SDS011;7960;50.908;4.204;2023-02-21T07:29:28;13.57;;;7.50;;
15716;SDS011;7960;50.908;4.204;2023-02-21T07:31:55;14.07;;;7.43;;
15716;SDS011;7960;50.908;4.204;2023-02-21T07:34:22;17.93;;;8.70;;
15716;SDS011;7960;50.908;4.204;2023-02-21T07:36:48;16.40;;;8.17;;
15716;SDS011;7960;50.908;4.204;2023-02-21T07:39:16;16.93;;;7.97;;
15716;SDS011;7960;50.908;4.204;2023-02-21T07:41:44;16.03;;;8.27;;
15716;SDS011;7960;50.908;4.204;2023-02-21T07:44:11;18.37;;;9.10;;
15716;SDS011;7960;50.908;4.204;2023-02-21T07:46:38;20.50;;;9.90;;
15716;SDS011;7960;50.908;4.204;2023-02-21T07:49:09;17.77;;;9.30;;
15716;SDS011;7960;50.908;4.204;2023-02-21T07:51:36;21.37;;;8.93;;
15716;SDS011;7960;50.908;4.204;2023-02-21T07:54:03;20.17;;;9.50;;
15716;SDS011;7960;50.908;4.204;2023-02-21T07:56:30;17.53;;;9.17;;
15716;SDS011;7960;50.908;4.204;2023-02-21T07:58:58;20.27;;;9.23;;
15716;SDS011;7960;50.908;4.204;2023-02-21T08:01:25;18.73;;;9.53;;
15716;SDS011;7960;50.908;4.204;2023-02-21T08:03:52;16.87;;;8.27;;
15716;SDS011;7960;50.908;4.204;2023-02-21T08:06:19;14.57;;;8.27;;
15716;SDS011;7960;50.908;4.204;2023-02-21T08:08:46;15.10;;;7.43;;
15716;SDS011;7960;50.908;4.204;2023-02-21T08:11:13;13.17;;;7.30;;
15716;SDS011;7960;50.908;4.204;2023-02-21T08:13:40;16.73;;;8.20;;
15716;SDS011;7960;50.908;4.204;2023-02-21T08:16:09;15.30;;;8.00;;
15716;SDS011;7960;50.908;4.204;2023-02-21T08:18:35;15.67;;;8.10;;
15716;SDS011;7960;50.908;4.204;2023-02-21T08:21:02;16.33;;;7.90;;
15716;SDS011;7960;50.908;4.204;2023-02-21T08:23:33;14.90;;;8.33;;
15716;SDS011;7960;50.908;4.204;2023-02-21T08:26:01;14.77;;;8.30;;
15716;SDS011;7960;50.908;4.204;2023-02-21T08:28:28;15.60;;;8.20;;
15716;SDS011;7960;50.908;4.204;2023-02-21T08:30:55;15.17;;;7.87;;
15716;SDS011;7960;50.908;4.204;2023-02-21T08:33:23;17.23;;;8.10;;
15716;SDS011;7960;50.908;4.204;2023-02-21T08:35:50;15.70;;;9.37;;
15716;SDS011;7960;50.908;4.204;2023-02-21T08:38:17;16.30;;;8.33;;
15716;SDS011;7960;50.908;4.204;2023-02-21T08:40:44;16.70;;;8.83;;
15716;SDS011;7960;50.908;4.204;2023-02-21T08:43:11;16.80;;;8.57;;
15716;SDS011;7960;50.908;4.204;2023-02-21T08:45:40;16.43;;;8.60;;
15716;SDS011;7960;50.908;4.204;2023-02-21T08:48:07;15.43;;;8.23;;
15716;SDS011;7960;50.908;4.204;2023-02-21T08:50:35;17.80;;;9.57;;
15716;SDS011;7960;50.908;4.204;2023-02-21T08:53:02;17.90;;;9.10;;
15716;SDS011;7960;50.908;4.204;2023-02-21T08:55:29;16.13;;;9.00;;
15716;SDS011;7960;50.908;4.204;2023-02-21T08:57:57;18.60;;;8.87;;
15716;SDS011;7960;50.908;4.204;2023-02-21T09:00:24;17.23;;;9.23;;
15716;SDS011;7960;50.908;4.204;2023-02-21T09:02:53;15.97;;;9.10;;
15716;SDS011;7960;50.908;4.204;2023-02-21T09:05:21;16.13;;;8.83;;
15716;SDS011;7960;50.908;4.204;2023-02-21T09:07:52;17.17;;;9.70;;
15716;SDS011;7960;50.908;4.204;2023-02-21T09:10:23;18.43;;;10.50;;
15716;SDS011;7960;50.908;4.204;2023-02-21T09:12:50;19.20;;;9.27;;
15716;SDS011;7960;50.908;4.204;2023-02-21T09:15:17;19.80;;;9.33;;
15716;SDS011;7960;50.908;4.204;2023-02-21T09:17:44;17.93;;;9.43;;
15716;SDS011;7960;50.908;4.204;2023-02-21T09:20:13;19.43;;;10.67;;
15716;SDS011;7960;50.908;4.204;2023-02-21T09:22:42;23.60;;;10.30;;
15716;SDS011;7960;50.908;4.204;2023-02-21T09:25:14;24.10;;;10.77;;
15716;SDS011;7960;50.908;4.204;2023-02-21T09:27:43;26.10;;;10.60;;
15716;SDS011;7960;50.908;4.204;2023-02-21T09:30:11;24.60;;;11.17;;
15716;SDS011;7960;50.908;4.204;2023-02-21T09:32:39;20.77;;;10.73;;
15716;SDS011;7960;50.908;4.204;2023-02-21T09:35:07;21.47;;;10.23;;
15716;SDS011;7960;50.908;4.204;2023-02-21T09:37:36;21.70;;;10.83;;
15716;SDS011;7960;50.908;4.204;2023-02-21T09:40:03;27.37;;;11.20;;
15716;SDS011;7960;50.908;4.204;2023-02-21T09:42:35;26.03;;;10.70;;
15716;SDS011;7960;50.908;4.204;2023-02-21T09:45:02;26.17;;;11.53;;
15716;SDS011;7960;50.908;4.204;2023-02-21T09:47:31;25.90;;;10.93;;
15716;SDS011;7960;50.908;4.204;2023-02-21T09:50:02;26.50;;;12.07;;
15716;SDS011;7960;50.908;4.204;2023-02-21T09:52:31;24.67;;;10.30;;
15716;SDS011;7960;50.908;4.204;2023-02-21T09:55:01;29.73;;;12.37;;
15716;SDS011;7960;50.908;4.204;2023-02-21T09:57:32;32.10;;;11.50;;
15716;SDS011;7960;50.908;4.204;2023-02-21T10:00:01;28.53;;;12.07;;
15716;SDS011;7960;50.908;4.204;2023-02-21T10:02:37;28.87;;;11.57;;
15716;SDS011;7960;50.908;4.204;2023-02-21T10:05:17;28.30;;;11.90;;
15716;SDS011;7960;50.908;4.204;2023-02-21T10:07:56;26.37;;;10.60;;
15716;SDS011;7960;50.908;4.204;2023-02-21T10:10:27;24.13;;;11.20;;
15716;SDS011;7960;50.908;4.204;2023-02-21T10:13:00;26.33;;;10.37;;
15716;SDS011;7960;50.908;4.204;2023-02-21T10:15:36;24.40;;;11.30;;
15716;SDS011;7960;50.908;4.204;2023-02-21T10:18:08;24.87;;;10.87;;
15716;SDS011;7960;50.908;4.204;2023-02-21T10:20:46;24.30;;;11.30;;
15716;SDS011;7960;50.908;4.204;2023-02-21T10:23:17;25.80;;;10.43;;
15716;SDS011;7960;50.908;4.204;2023-02-21T10:25:47;23.77;;;10.27;;
15716;SDS011;7960;50.908;4.204;2023-02-21T10:28:22;23.20;;;10.57;;
15716;SDS011;7960;50.908;4.204;2023-02-21T10:30:51;28.70;;;12.37;;
15716;SDS011;7960;50.908;4.204;2023-02-21T10:33:21;25.47;;;10.70;;
15716;SDS011;7960;50.908;4.204;2023-02-21T10:35:48;26.27;;;10.83;;
15716;SDS011;7960;50.908;4.204;2023-02-21T10:38:15;26.80;;;10.67;;
15716;SDS011;7960;50.908;4.204;2023-02-21T10:40:46;28.93;;;11.60;;
15716;SDS011;7960;50.908;4.204;2023-02-21T10:43:19;25.90;;;11.40;;
15716;SDS011;7960;50.908;4.204;2023-02-21T10:45:52;26.60;;;10.97;;
15716;SDS011;7960;50.908;4.204;2023-02-21T10:48:23;22.70;;;10.07;;
15716;SDS011;7960;50.908;4.204;2023-02-21T10:51:04;22.97;;;11.13;;
15716;SDS011;7960;50.908;4.204;2023-02-21T10:53:33;24.33;;;10.60;;
15716;SDS011;7960;50.908;4.204;2023-02-21T10:56:05;25.87;;;10.83;;
15716;SDS011;7960;50.908;4.204;2023-02-21T10:58:46;22.40;;;10.43;;
15716;SDS011;7960;50.908;4.204;2023-02-21T11:01:16;24.97;;;11.27;;
15716;SDS011;7960;50.908;4.204;2023-02-21T11:03:46;24.10;;;11.10;;
15716;SDS011;7960;50.908;4.204;2023-02-21T11:06:23;22.17;;;10.90;;
15716;SDS011;7960;50.908;4.204;2023-02-21T11:08:53;24.93;;;11.00;;
15716;SDS011;7960;50.908;4.204;2023-02-21T11:11:30;21.37;;;10.37;;
15716;SDS011;7960;50.908;4.204;2023-02-21T11:17:03;25.83;;;10.50;;
15716;SDS011;7960;50.908;4.204;2023-02-21T11:19:41;21.40;;;11.13;;
15716;SDS011;7960;50.908;4.204;2023-02-21T11:22:10;21.20;;;10.20;;
15716;SDS011;7960;50.908;4.204;2023-02-21T11:24:44;21.80;;;10.47;;
15716;SDS011;7960;50.908;4.204;2023-02-21T11:27:17;22.23;;;11.53;;
15716;SDS011;7960;50.908;4.204;2023-02-21T11:29:46;20.00;;;10.97;;
15716;SDS011;7960;50.908;4.204;2023-02-21T11:32:18;19.93;;;10.17;;
15716;SDS011;7960;50.908;4.204;2023-02-21T11:34:49;20.60;;;10.47;;
15716;SDS011;7960;50.908;4.204;2023-02-21T11:37:16;17.30;;;9.53;;
15716;SDS011;7960;50.908;4.204;2023-02-21T11:39:48;17.50;;;9.20;;
15716;SDS011;7960;50.908;4.204;2023-02-21T11:42:24;20.93;;;8.73;;
15716;SDS011;7960;50.908;4.204;2023-02-21T11:45:03;18.00;;;9.20;;
15716;SDS011;7960;50.908;4.204;2023-02-21T11:47:38;20.47;;;9.53;;
15716;SDS011;7960;50.908;4.204;2023-02-21T11:50:12;17.73;;;9.23;;
15716;SDS011;7960;50.908;4.204;2023-02-21T11:52:48;18.23;;;8.47;;
15716;SDS011;7960;50.908;4.204;2023-02-21T11:55:20;14.90;;;9.13;;
15716;SDS011;7960;50.908;4.204;2023-02-21T11:57:51;15.00;;;8.20;;
15716;SDS011;7960;50.908;4.204;2023-02-21T12:00:29;13.10;;;7.83;;
15716;SDS011;7960;50.908;4.204;2023-02-21T12:05:59;14.80;;;8.63;;
15716;SDS011;7960;50.908;4.204;2023-02-21T12:08:36;15.13;;;8.53;;
15716;SDS011;7960;50.908;4.204;2023-02-21T12:11:25;16.33;;;8.57;;
15716;SDS011;7960;50.908;4.204;2023-02-21T12:14:13;18.60;;;9.23;;
15716;SDS011;7960;50.908;4.204;2023-02-21T12:16:52;14.27;;;8.80;;
15716;SDS011;7960;50.908;4.204;2023-02-21T12:19:29;15.03;;;9.53;;
15716;SDS011;7960;50.908;4.204;2023-02-21T12:22:15;16.77;;;9.43;;
15716;SDS011;7960;50.908;4.204;2023-02-21T12:24:53;19.27;;;9.47;;
15716;SDS011;7960;50.908;4.204;2023-02-21T12:27:29;17.40;;;10.00;;
15716;SDS011;7960;50.908;4.204;2023-02-21T12:30:16;15.70;;;9.83;;
15716;SDS011;7960;50.908;4.204;2023-02-21T12:33:04;13.13;;;8.43;;
15716;SDS011;7960;50.908;4.204;2023-02-21T12:35:46;17.50;;;8.73;;
15716;SDS011;7960;50.908;4.204;2023-02-21T12:38:41;21.57;;;8.97;;
15716;SDS011;7960;50.908;4.204;2023-02-21T12:41:30;15.00;;;7.97;;
15716;SDS011;7960;50.908;4.204;2023-02-21T12:44:11;12.07;;;8.10;;
15716;SDS011;7960;50.908;4.204;2023-02-21T12:46:41;13.43;;;7.87;;
15716;SDS011;7960;50.908;4.204;2023-02-21T12:49:18;14.90;;;8.33;;
15716;SDS011;7960;50.908;4.204;2023-02-21T12:51:50;17.10;;;8.03;;
15716;SDS011;7960;50.908;4.204;2023-02-21T12:54:22;12.37;;;7.13;;
15716;SDS011;7960;50.908;4.204;2023-02-21T12:57:01;12.00;;;7.17;;
15716;SDS011;7960;50.908;4.204;2023-02-21T12:59:35;14.17;;;7.63;;
15716;SDS011;7960;50.908;4.204;2023-02-21T13:02:11;12.63;;;7.17;;
15716;SDS011;7960;50.908;4.204;2023-02-21T13:04:48;12.70;;;7.87;;
15716;SDS011;7960;50.908;4.204;2023-02-21T13:07:20;17.13;;;9.20;;
15716;SDS011;7960;50.908;4.204;2023-02-21T13:09:53;21.63;;;9.50;;
15716;SDS011;7960;50.908;4.204;2023-02-21T13:12:24;14.87;;;8.50;;
15716;SDS011;7960;50.908;4.204;2023-02-21T13:14:56;13.27;;;8.33;;
15716;SDS011;7960;50.908;4.204;2023-02-21T13:17:27;18.13;;;10.20;;
15716;SDS011;7960;50.908;4.204;2023-02-21T13:19:58;16.70;;;9.83;;
15716;SDS011;7960;50.908;4.204;2023-02-21T13:22:30;22.20;;;10.80;;
15716;SDS011;7960;50.908;4.204;2023-02-21T13:25:19;15.23;;;9.13;;
15716;SDS011;7960;50.908;4.204;2023-02-21T13:27:55;24.70;;;11.73;;
15716;SDS011;7960;50.908;4.204;2023-02-21T13:30:27;20.03;;;10.97;;
15716;SDS011;7960;50.908;4.204;2023-02-21T13:33:04;17.33;;;9.60;;
15716;SDS011;7960;50.908;4.204;2023-02-21T13:35:34;15.90;;;8.83;;
15716;SDS011;7960;50.908;4.204;2023-02-21T13:38:05;10.37;;;7.13;;
15716;SDS011;7960;50.908;4.204;2023-02-21T13:40:36;15.03;;;7.80;;
15716;SDS011;7960;50.908;4.204;2023-02-21T13:43:09;12.10;;;7.03;;
15716;SDS011;7960;50.908;4.204;2023-02-21T13:45:39;12.33;;;7.90;;
15716;SDS011;7960;50.908;4.204;2023-02-21T13:50:56;15.17;;;8.17;;
15716;SDS011;7960;50.908;4.204;2023-02-21T13:53:25;17.67;;;8.93;;
15716;SDS011;7960;50.908;4.204;2023-02-21T14:02:15;15.10;;;8.83;;
15716;SDS011;7960;50.908;4.204;2023-02-21T14:07:42;14.77;;;8.50;;
15716;SDS011;7960;50.908;4.204;2023-02-21T14:10:24;15.70;;;8.87;;
15716;SDS011;7960;50.908;4.204;2023-02-21T14:13:00;19.33;;;10.00;;
15716;SDS011;7960;50.908;4.204;2023-02-21T14:15:36;16.30;;;9.23;;
15716;SDS011;7960;50.908;4.204;2023-02-21T14:18:13;18.63;;;10.03;;
15716;SDS011;7960;50.908;4.204;2023-02-21T14:20:47;14.47;;;8.70;;
15716;SDS011;7960;50.908;4.204;2023-02-21T14:23:18;17.63;;;8.13;;
15716;SDS011;7960;50.908;4.204;2023-02-21T14:25:57;15.03;;;8.13;;
15716;SDS011;7960;50.908;4.204;2023-02-21T14:31:51;12.10;;;8.13;;
15716;SDS011;7960;50.908;4.204;2023-02-21T14:34:23;13.07;;;8.43;;
15716;SDS011;7960;50.908;4.204;2023-02-21T14:37:01;14.43;;;8.33;;
15716;SDS011;7960;50.908;4.204;2023-02-21T14:39:33;16.43;;;7.83;;
15716;SDS011;7960;50.908;4.204;2023-02-21T14:45:00;12.03;;;8.27;;
15716;SDS011;7960;50.908;4.204;2023-02-21T14:51:04;12.03;;;7.87;;
15716;SDS011;7960;50.908;4.204;2023-02-21T14:53:52;12.17;;;8.10;;
15716;SDS011;7960;50.908;4.204;2023-02-21T14:56:37;15.47;;;8.37;;
15716;SDS011;7960;50.908;4.204;2023-02-21T14:59:24;12.57;;;8.10;;
15716;SDS011;7960;50.908;4.204;2023-02-21T15:02:06;11.33;;;7.70;;
15716;SDS011;7960;50.908;4.204;2023-02-21T15:04:45;16.10;;;7.53;;
15716;SDS011;7960;50.908;4.204;2023-02-21T15:07:20;13.40;;;8.67;;
15716;SDS011;7960;50.908;4.204;2023-02-21T15:10:04;15.73;;;8.67;;
15716;SDS011;7960;50.908;4.204;2023-02-21T15:12:41;13.87;;;8.47;;
15716;SDS011;7960;50.908;4.204;2023-02-21T15:15:13;15.17;;;8.53;;
15716;SDS011;7960;50.908;4.204;2023-02-21T15:17:44;17.50;;;9.10;;
15716;SDS011;7960;50.908;4.204;2023-02-21T15:20:19;18.43;;;10.00;;
15716;SDS011;7960;50.908;4.204;2023-02-21T15:22:53;16.57;;;10.13;;
15716;SDS011;7960;50.908;4.204;2023-02-21T15:25:21;18.23;;;10.43;;
15716;SDS011;7960;50.908;4.204;2023-02-21T15:27:58;19.57;;;9.90;;
15716;SDS011;7960;50.908;4.204;2023-02-21T15:30:29;16.37;;;9.70;;
15716;SDS011;7960;50.908;4.204;2023-02-21T15:32:59;26.23;;;11.13;;
15716;SDS011;7960;50.908;4.204;2023-02-21T15:35:31;22.33;;;12.50;;
15716;SDS011;7960;50.908;4.204;2023-02-21T15:38:02;22.43;;;12.20;;
15716;SDS011;7960;50.908;4.204;2023-02-21T15:40:31;28.43;;;14.33;;
15716;SDS011;7960;50.908;4.204;2023-02-21T15:43:00;24.33;;;12.70;;
15716;SDS011;7960;50.908;4.204;2023-02-21T15:45:30;25.67;;;13.43;;
15716;SDS011;7960;50.908;4.204;2023-02-21T15:48:03;22.20;;;12.80;;
15716;SDS011;7960;50.908;4.204;2023-02-21T15:50:31;25.13;;;14.33;;
15716;SDS011;7960;50.908;4.204;2023-02-21T15:53:15;25.03;;;14.10;;
15716;SDS011;7960;50.908;4.204;2023-02-21T15:55:44;31.30;;;15.07;;